createdAt,value
2023-01-08T00:00:08.236Z,101110.17
2023-01-08T00:01:13.550Z,101103.47
2023-01-08T00:02:15.896Z,101110.53
2023-01-08T00:03:18.425Z,101103.87
2023-01-08T00:04:21.157Z,101111.47
2023-01-08T00:05:23.643Z,101107.45
2023-01-08T00:06:26.122Z,101114.40
2023-01-08T00:07:28.208Z,101111.03
2023-01-08T00:08:31.613Z,101113.16
2023-01-08T00:09:38.844Z,101115.20
2023-01-08T00:10:41.410Z,101115.86
2023-01-08T00:11:44.342Z,101124.02
2023-01-08T00:12:46.687Z,101117.30
2023-01-08T00:13:49.721Z,101114.54
2023-01-08T00:14:55.009Z,101114.54
2023-01-08T00:15:57.203Z,101126.76
2023-01-08T00:17:02.363Z,101123.74
2023-01-08T00:18:07.055Z,101120.52
2023-01-08T00:20:38.229Z,101124.56
2023-01-08T00:21:40.166Z,101110.17
2023-01-08T00:22:42.401Z,101118.08
2023-01-08T00:23:44.599Z,101110.63
2023-01-08T00:24:47.215Z,101107.19
2023-01-08T00:25:49.768Z,101112.26
2023-01-08T00:26:52.515Z,101112.06
2023-01-08T00:27:54.496Z,101121.15
2023-01-08T00:28:56.612Z,101113.80
2023-01-08T00:30:00.232Z,101118.08
2023-01-08T00:31:07.378Z,101120.34
2023-01-08T00:32:10.180Z,101118.74
2023-01-08T00:33:12.367Z,101118.22
2023-01-08T00:34:15.542Z,101119.80
2023-01-08T00:35:17.559Z,101112.94
2023-01-08T00:36:20.069Z,101110.17
2023-01-08T00:37:22.248Z,101112.70
2023-01-08T00:38:28.875Z,101110.37
2023-01-08T00:39:32.166Z,101111.95
2023-01-08T00:40:35.883Z,101124.69
2023-01-08T00:41:41.708Z,101118.51
2023-01-08T00:42:43.844Z,101116.09
2023-01-08T00:43:45.949Z,101119.95
2023-01-08T00:44:48.042Z,101116.89
2023-01-08T00:45:52.005Z,101116.09
2023-01-08T00:46:54.388Z,101119.07
2023-01-08T00:47:56.412Z,101117.16
2023-01-08T00:49:00.644Z,101117.22
2023-01-08T00:50:03.793Z,101114.95
2023-01-08T00:51:09.000Z,101113.94
2023-01-08T00:52:12.001Z,101112.26
2023-01-08T00:53:14.235Z,101110.55
2023-01-08T00:54:16.344Z,101108.93
2023-01-08T00:55:19.556Z,101116.83
2023-01-08T00:56:21.784Z,101124.84
2023-01-08T00:57:25.996Z,101117.97
2023-01-08T00:58:30.302Z,101120.88
2023-01-08T00:59:32.430Z,101114.59
2023-01-08T01:00:34.541Z,101114.68
2023-01-08T01:01:37.209Z,101121.55
2023-01-08T01:02:40.605Z,101124.93
2023-01-08T01:03:42.950Z,101109.95
2023-01-08T01:04:44.957Z,101106.01
2023-01-08T01:05:49.095Z,101112.23
2023-01-08T01:08:15.176Z,101104.94
2023-01-08T01:09:17.233Z,101114.00
2023-01-08T01:10:21.422Z,101115.95
2023-01-08T01:11:26.710Z,101119.55
2023-01-08T01:12:30.358Z,101106.48
2023-01-08T01:13:32.469Z,101109.96
2023-01-08T01:14:39.749Z,101108.16
2023-01-08T01:15:45.593Z,101117.97
2023-01-08T01:16:51.068Z,101110.16
2023-01-08T01:17:53.169Z,101109.70
2023-01-08T01:18:57.121Z,101108.91
2023-01-08T01:20:00.771Z,101110.22
2023-01-08T01:22:31.360Z,101097.30
2023-01-08T01:23:33.793Z,101110.48
2023-01-08T01:24:38.039Z,101106.42
2023-01-08T01:25:40.125Z,101106.42
2023-01-08T01:26:42.516Z,101113.81
2023-01-08T01:27:44.505Z,101105.42
2023-01-08T01:28:49.189Z,101117.45
2023-01-08T01:29:51.899Z,101114.55
2023-01-08T01:30:57.722Z,101115.44
2023-01-08T01:32:09.098Z,101111.84
2023-01-08T01:33:12.491Z,101113.00
2023-01-08T01:34:14.525Z,101101.83
2023-01-08T01:35:16.516Z,101109.28
2023-01-08T01:36:23.057Z,101107.43
2023-01-08T01:37:27.088Z,101102.09
2023-01-08T01:38:31.465Z,101097.17
2023-01-08T01:40:00.025Z,101095.83
2023-01-08T01:41:04.825Z,101085.92
2023-01-08T01:42:08.917Z,101083.16
2023-01-08T01:43:14.287Z,101080.97
2023-01-08T01:44:40.206Z,101073.81
2023-01-08T01:45:42.575Z,101071.69
2023-01-08T01:46:45.190Z,101086.57
2023-01-08T01:47:54.357Z,101087.58
2023-01-08T01:49:01.765Z,101082.59
2023-01-08T01:51:27.621Z,101078.19
2023-01-08T01:52:34.712Z,101102.52
2023-01-08T01:53:38.459Z,101096.77
2023-01-08T01:54:40.773Z,101096.94
2023-01-08T01:55:45.238Z,101101.51
2023-01-08T01:56:49.332Z,101091.17
2023-01-08T01:58:11.971Z,101087.42
2023-01-08T01:59:15.567Z,101096.27
2023-01-08T02:00:19.711Z,101105.86
2023-01-08T02:01:23.544Z,101094.56
2023-01-08T02:02:26.161Z,101093.20
2023-01-08T02:03:34.625Z,101103.11
2023-01-08T02:04:36.970Z,101108.61
2023-01-08T02:06:07.401Z,101109.80
2023-01-08T02:07:35.263Z,101115.13
2023-01-08T02:08:46.304Z,101103.83
2023-01-08T02:09:52.019Z,101102.63
2023-01-08T02:11:14.991Z,101108.72
2023-01-08T02:12:20.717Z,101105.69
2023-01-08T02:13:29.250Z,101098.88
2023-01-08T02:16:17.794Z,101106.47
2023-01-08T02:17:36.116Z,101107.20
2023-01-08T02:18:50.576Z,101105.09
2023-01-08T02:20:07.505Z,101097.17
2023-01-08T02:21:13.327Z,101095.97
2023-01-08T02:22:39.067Z,101100.68
2023-01-08T02:23:59.143Z,101092.98
2023-01-08T02:25:21.759Z,101093.98
2023-01-08T02:26:32.843Z,101093.93
2023-01-08T02:27:37.497Z,101100.48
2023-01-08T02:28:49.172Z,101097.00
2023-01-08T02:29:53.680Z,101103.01
2023-01-08T02:30:57.465Z,101096.34
2023-01-08T02:31:59.981Z,101093.98
2023-01-08T02:33:02.609Z,101094.61
2023-01-08T02:34:05.652Z,101094.46
2023-01-08T02:35:10.012Z,101091.19
2023-01-08T02:36:32.501Z,101092.88
2023-01-08T02:37:36.841Z,101099.15
2023-01-08T02:38:45.131Z,101103.09
2023-01-08T02:39:53.687Z,101098.23
2023-01-08T02:40:59.598Z,101107.19
2023-01-08T02:42:11.394Z,101108.14
2023-01-08T02:43:20.367Z,101106.19
2023-01-08T02:44:26.186Z,101113.00
2023-01-08T02:45:44.373Z,101107.70
2023-01-08T02:46:50.436Z,101099.89
2023-01-08T02:48:03.185Z,101090.84
2023-01-08T02:49:09.750Z,101095.97
2023-01-08T02:50:30.267Z,101093.44
2023-01-08T02:51:36.325Z,101094.23
2023-01-08T02:52:42.438Z,101102.78
2023-01-08T02:53:48.175Z,101097.14
2023-01-08T02:54:51.334Z,101098.94
2023-01-08T02:55:57.632Z,101105.13
2023-01-08T02:57:03.529Z,101104.27
2023-01-08T02:58:08.266Z,101095.47
2023-01-08T02:59:14.481Z,101101.42
2023-01-08T03:00:19.513Z,101102.86
2023-01-08T03:01:25.532Z,101105.84
2023-01-08T03:02:31.467Z,101105.22
2023-01-08T03:03:34.616Z,101103.66
2023-01-08T03:04:43.225Z,101096.77
2023-01-08T03:05:49.651Z,101099.41
2023-01-08T03:06:52.318Z,101105.22
2023-01-08T03:07:55.422Z,101099.62
2023-01-08T03:09:00.388Z,101097.30
2023-01-08T03:10:04.847Z,101106.58
2023-01-08T03:11:10.378Z,101100.77
2023-01-08T03:12:21.983Z,101100.77
2023-01-08T03:13:36.455Z,101096.23
2023-01-08T03:14:48.173Z,101097.17
2023-01-08T03:15:54.633Z,101098.62
2023-01-08T03:17:00.591Z,101104.20
2023-01-08T03:18:06.383Z,101094.02
2023-01-08T03:19:18.375Z,101093.44
2023-01-08T03:20:24.348Z,101089.69
2023-01-08T03:21:27.332Z,101093.80
2023-01-08T03:22:32.005Z,101101.41
2023-01-08T03:23:37.715Z,101097.53
2023-01-08T03:24:42.669Z,101097.53
2023-01-08T03:25:47.426Z,101094.33
2023-01-08T03:26:53.739Z,101091.27
2023-01-08T03:28:01.240Z,101087.94
2023-01-08T03:29:06.167Z,101095.02
2023-01-08T03:30:11.679Z,101082.62
2023-01-08T03:31:17.175Z,101082.77
2023-01-08T03:32:22.513Z,101081.30
2023-01-08T03:33:27.242Z,101085.16
2023-01-08T03:34:32.591Z,101087.16
2023-01-08T03:35:38.394Z,101076.08
2023-01-08T03:36:44.388Z,101099.81
2023-01-08T03:37:50.079Z,101094.02
2023-01-08T03:38:56.302Z,101090.75
2023-01-08T03:40:02.079Z,101087.20
2023-01-08T03:41:08.382Z,101091.95
2023-01-08T03:42:14.727Z,101093.74
2023-01-08T03:43:17.066Z,101094.59
2023-01-08T03:44:19.354Z,101096.34
2023-01-08T03:45:26.886Z,101099.23
2023-01-08T03:46:32.988Z,101092.27
2023-01-08T03:47:38.394Z,101089.09
2023-01-08T03:48:43.628Z,101090.80
2023-01-08T03:49:49.725Z,101086.62
2023-01-08T03:50:54.410Z,101087.84
2023-01-08T03:51:56.592Z,101081.23
2023-01-08T03:53:00.649Z,101086.04
2023-01-08T03:54:03.045Z,101086.04
2023-01-08T03:55:05.681Z,101090.80
2023-01-08T03:56:08.233Z,101089.42
2023-01-08T03:57:10.600Z,101089.63
2023-01-08T03:58:13.191Z,101075.28
2023-01-08T03:59:17.204Z,101075.28
2023-01-08T04:00:20.586Z,101092.11
2023-01-08T04:01:22.987Z,101090.16
2023-01-08T04:02:25.337Z,101084.69
2023-01-08T04:03:28.643Z,101089.02
2023-01-08T04:04:30.814Z,101089.58
2023-01-08T04:05:33.411Z,101098.18
2023-01-08T04:06:35.699Z,101099.83
2023-01-08T04:07:37.947Z,101103.16
2023-01-08T04:08:39.940Z,101099.98
2023-01-08T04:09:42.014Z,101094.08
2023-01-08T04:10:44.608Z,101099.30
2023-01-08T04:11:46.532Z,101094.08
2023-01-08T04:12:48.648Z,101109.44
2023-01-08T04:13:50.903Z,101098.03
2023-01-08T04:14:53.160Z,101105.57
2023-01-08T04:15:55.459Z,101109.64
2023-01-08T04:16:58.118Z,101109.42
2023-01-08T04:18:00.233Z,101119.41
2023-01-08T04:19:02.404Z,101103.30
2023-01-08T04:20:06.072Z,101103.56
2023-01-08T04:21:08.331Z,101104.48
2023-01-08T04:22:11.175Z,101111.77
2023-01-08T04:23:15.764Z,101106.42
2023-01-08T04:24:18.749Z,101102.25
2023-01-08T04:25:21.017Z,101102.52
2023-01-08T04:26:23.972Z,101109.44
2023-01-08T04:27:26.245Z,101109.44
2023-01-08T04:28:28.373Z,101104.37
2023-01-08T04:29:30.256Z,101103.52
2023-01-08T04:30:34.054Z,101108.31
2023-01-08T04:31:41.446Z,101108.31
2023-01-08T04:32:41.247Z,101102.89
2023-01-08T04:33:43.604Z,101097.87
2023-01-08T04:34:45.603Z,101105.16
2023-01-08T04:35:49.818Z,101099.81
2023-01-08T04:36:52.494Z,101101.41
2023-01-08T04:37:54.652Z,101106.19
2023-01-08T04:38:56.830Z,101117.27
2023-01-08T04:39:59.052Z,101110.19
2023-01-08T04:41:02.413Z,101107.50
2023-01-08T04:42:04.845Z,101106.77
2023-01-08T04:43:06.959Z,101102.14
2023-01-08T04:44:09.307Z,101101.80
2023-01-08T04:45:11.556Z,101110.53
2023-01-08T04:46:14.782Z,101100.94
2023-01-08T04:47:16.854Z,101114.82
2023-01-08T04:48:19.065Z,101099.41
2023-01-08T04:49:21.394Z,101099.41
2023-01-08T04:50:25.064Z,101115.73
2023-01-08T04:51:27.118Z,101112.64
2023-01-08T04:52:29.141Z,101111.91
2023-01-08T04:53:34.176Z,101107.70
2023-01-08T04:54:36.255Z,101109.17
2023-01-08T04:55:39.730Z,101113.23
2023-01-08T04:56:42.420Z,101112.29
2023-01-08T04:57:45.393Z,101114.34
2023-01-08T04:58:47.528Z,101112.75
2023-01-08T04:59:49.560Z,101114.61
2023-01-08T05:00:51.778Z,101112.50
2023-01-08T05:01:55.635Z,101106.75
2023-01-08T05:03:01.364Z,101109.75
2023-01-08T05:04:05.034Z,101112.08
2023-01-08T05:05:07.578Z,101125.84
2023-01-08T05:06:10.070Z,101121.05
2023-01-08T05:07:12.045Z,101118.15
2023-01-08T05:08:14.148Z,101118.36
2023-01-08T05:09:15.955Z,101119.30
2023-01-08T05:10:18.984Z,101122.05
2023-01-08T05:11:21.777Z,101124.64
2023-01-08T05:12:23.824Z,101122.91
2023-01-08T05:13:25.966Z,101127.58
2023-01-08T05:14:27.895Z,101129.91
2023-01-08T05:15:29.978Z,101136.09
2023-01-08T05:16:32.305Z,101127.97
2023-01-08T05:17:35.333Z,101127.30
2023-01-08T05:18:37.418Z,101124.76
2023-01-08T05:19:39.445Z,101123.93
2023-01-08T05:20:42.009Z,101125.58
2023-01-08T05:21:44.092Z,101128.63
2023-01-08T05:22:47.887Z,101122.28
2023-01-08T05:23:50.296Z,101129.36
2023-01-08T05:24:57.358Z,101119.80
2023-01-08T05:26:00.810Z,101114.88
2023-01-08T05:27:03.167Z,101118.27
2023-01-08T05:28:05.175Z,101118.45
2023-01-08T05:29:07.664Z,101119.30
2023-01-08T05:30:10.999Z,101123.64
2023-01-08T05:31:13.079Z,101116.89
2023-01-08T05:32:17.085Z,101113.71
2023-01-08T05:33:19.990Z,101120.42
2023-01-08T05:34:21.972Z,101128.22
2023-01-08T05:35:24.534Z,101126.64
2023-01-08T05:36:26.930Z,101127.84
2023-01-08T05:37:29.114Z,101127.84
2023-01-08T05:38:31.043Z,101130.56
2023-01-08T05:39:33.240Z,101124.58
2023-01-08T05:40:35.427Z,101125.37
2023-01-08T05:41:37.656Z,101135.45
2023-01-08T05:42:41.257Z,101127.70
2023-01-08T05:43:43.549Z,101125.84
2023-01-08T05:44:45.677Z,101133.81
2023-01-08T05:45:48.340Z,101131.64
2023-01-08T05:46:53.360Z,101121.41
2023-01-08T05:47:57.335Z,101134.76
2023-01-08T05:49:00.539Z,101123.09
2023-01-08T05:50:03.351Z,101132.34
2023-01-08T05:51:05.696Z,101125.14
2023-01-08T05:52:07.915Z,101124.72
2023-01-08T05:53:10.915Z,101125.94
2023-01-08T05:54:13.521Z,101125.27
2023-01-08T05:55:16.799Z,101132.74
2023-01-08T05:56:21.224Z,101133.53
2023-01-08T05:57:23.743Z,101133.32
2023-01-08T05:58:26.656Z,101136.07
2023-01-08T05:59:28.755Z,101126.45
2023-01-08T06:00:33.167Z,101135.13
2023-01-08T06:01:35.349Z,101124.14
2023-01-08T06:02:37.889Z,101128.63
2023-01-08T06:03:40.090Z,101134.60
2023-01-08T06:04:43.193Z,101135.98
2023-01-08T06:05:45.710Z,101146.38
2023-01-08T06:06:47.839Z,101149.83
2023-01-08T06:07:49.817Z,101141.82
2023-01-08T06:08:52.377Z,101138.99
2023-01-08T06:09:54.516Z,101138.99
2023-01-08T06:11:00.972Z,101146.38
2023-01-08T06:12:03.521Z,101156.09
2023-01-08T06:13:09.990Z,101153.77
2023-01-08T06:14:12.600Z,101150.30
2023-01-08T06:15:15.166Z,101151.70
2023-01-08T06:16:20.255Z,101151.70
2023-01-08T06:17:22.503Z,101149.16
2023-01-08T06:18:24.643Z,101143.82
2023-01-08T06:19:26.831Z,101147.00
2023-01-08T06:20:29.237Z,101144.19
2023-01-08T06:21:31.355Z,101150.98
2023-01-08T06:22:33.910Z,101150.92
2023-01-08T06:23:36.352Z,101144.25
2023-01-08T06:24:38.858Z,101143.82
2023-01-08T06:25:40.967Z,101145.75
2023-01-08T06:26:43.485Z,101144.95
2023-01-08T06:27:53.954Z,101144.83
2023-01-08T06:28:56.532Z,101148.22
2023-01-08T06:29:58.718Z,101145.69
2023-01-08T06:31:01.888Z,101136.34
2023-01-08T06:32:04.381Z,101147.55
2023-01-08T06:33:06.370Z,101144.40
2023-01-08T06:34:08.443Z,101136.86
2023-01-08T06:35:10.802Z,101138.02
2023-01-08T06:36:13.195Z,101143.09
2023-01-08T06:37:17.011Z,101143.09
2023-01-08T06:38:19.341Z,101143.82
2023-01-08T06:39:22.060Z,101143.82
2023-01-08T06:40:24.692Z,101149.28
2023-01-08T06:41:26.565Z,101146.23
2023-01-08T06:42:29.051Z,101149.83
2023-01-08T06:43:32.784Z,101148.48
2023-01-08T06:44:37.196Z,101142.09
2023-01-08T06:45:39.820Z,101142.88
2023-01-08T06:46:42.381Z,101150.48
2023-01-08T06:47:44.707Z,101151.02
2023-01-08T06:48:46.634Z,101149.02
2023-01-08T06:49:48.552Z,101148.22
2023-01-08T06:50:52.655Z,101151.20
2023-01-08T06:51:54.663Z,101148.73
2023-01-08T06:52:56.911Z,101153.28
2023-01-08T06:53:59.213Z,101149.16
2023-01-08T06:55:01.825Z,101148.22
2023-01-08T06:56:06.828Z,101151.48
2023-01-08T06:57:08.897Z,101149.80
2023-01-08T06:58:12.222Z,101147.27
2023-01-08T06:59:14.465Z,101143.82
2023-01-08T07:00:18.398Z,101145.13
2023-01-08T07:01:22.517Z,101142.66
2023-01-08T07:02:25.791Z,101138.48
2023-01-08T07:03:29.750Z,101138.48
2023-01-08T07:04:32.911Z,101154.03
2023-01-08T07:05:35.970Z,101147.17
2023-01-08T07:06:38.223Z,101155.11
2023-01-08T07:07:40.248Z,101147.45
2023-01-08T07:08:43.561Z,101156.63
2023-01-08T07:09:45.845Z,101158.87
2023-01-08T07:10:48.734Z,101154.55
2023-01-08T07:11:51.064Z,101155.49
2023-01-08T07:12:53.284Z,101159.89
2023-01-08T07:13:57.262Z,101154.98
2023-01-08T07:14:59.459Z,101149.92
2023-01-08T07:16:11.875Z,101156.84
2023-01-08T07:17:13.970Z,101154.19
2023-01-08T07:18:17.058Z,101154.03
2023-01-08T07:19:19.310Z,101154.25
2023-01-08T07:20:21.613Z,101145.13
2023-01-08T07:21:23.856Z,101152.06
2023-01-08T07:22:26.984Z,101158.29
2023-01-08T07:23:29.838Z,101150.32
2023-01-08T07:24:31.948Z,101153.67
2023-01-08T07:25:36.328Z,101145.70
2023-01-08T07:26:39.183Z,101149.41
2023-01-08T07:27:41.566Z,101149.41
2023-01-08T07:28:43.999Z,101145.98
2023-01-08T07:29:46.487Z,101143.39
2023-01-08T07:30:48.716Z,101143.11
2023-01-08T07:31:50.762Z,101142.23
2023-01-08T07:32:53.356Z,101145.42
2023-01-08T07:33:55.875Z,101135.00
2023-01-08T07:34:59.559Z,101145.95
2023-01-08T07:36:02.480Z,101141.78
2023-01-08T07:37:04.432Z,101144.09
2023-01-08T07:38:06.493Z,101140.77
2023-01-08T07:39:08.436Z,101146.23
2023-01-08T07:40:12.637Z,101144.91
2023-01-08T07:41:16.853Z,101135.07
2023-01-08T07:42:19.609Z,101140.08
2023-01-08T07:43:21.827Z,101138.49
2023-01-08T07:44:24.461Z,101142.09
2023-01-08T07:45:28.292Z,101138.76
2023-01-08T07:46:30.573Z,101137.02
2023-01-08T07:47:32.773Z,101142.61
2023-01-08T07:48:36.193Z,101142.88
2023-01-08T07:49:38.187Z,101139.34
2023-01-08T07:50:41.520Z,101144.91
2023-01-08T07:51:43.806Z,101133.98
2023-01-08T07:52:46.567Z,101145.50
2023-01-08T07:53:49.762Z,101136.09
2023-01-08T07:54:52.526Z,101144.77
2023-01-08T07:56:03.098Z,101139.97
2023-01-08T07:57:05.175Z,101152.64
2023-01-08T07:58:13.326Z,101146.95
2023-01-08T07:59:15.361Z,101137.75
2023-01-08T08:00:18.423Z,101145.30
2023-01-08T08:01:21.220Z,101148.69
2023-01-08T08:02:24.708Z,101158.77
2023-01-08T08:03:27.112Z,101143.09
2023-01-08T08:04:29.101Z,101143.67
2023-01-08T08:05:33.539Z,101140.50
2023-01-08T08:06:36.650Z,101155.17
2023-01-08T08:07:38.920Z,101156.30
2023-01-08T08:08:42.281Z,101152.75
2023-01-08T08:09:44.458Z,101151.45
2023-01-08T08:10:47.046Z,101155.05
2023-01-08T08:11:49.652Z,101156.97
2023-01-08T08:12:52.236Z,101164.11
2023-01-08T08:13:56.601Z,101157.45
2023-01-08T08:14:58.450Z,101155.82
2023-01-08T08:16:02.891Z,101149.31
2023-01-08T08:17:04.965Z,101150.48
2023-01-08T08:18:07.225Z,101161.98
2023-01-08T08:19:12.114Z,101157.03
2023-01-08T08:20:16.424Z,101160.89
2023-01-08T08:21:18.478Z,101162.16
2023-01-08T08:22:20.524Z,101168.23
2023-01-08T08:23:22.352Z,101165.42
2023-01-08T08:24:24.279Z,101158.15
2023-01-08T08:25:29.888Z,101166.42
2023-01-08T08:26:33.369Z,101157.88
2023-01-08T08:27:36.781Z,101174.09
2023-01-08T08:28:39.649Z,101161.78
2023-01-08T08:29:43.267Z,101152.84
2023-01-08T08:30:46.131Z,101159.09
2023-01-08T08:31:48.114Z,101162.16
2023-01-08T08:32:50.226Z,101158.23
2023-01-08T08:33:52.226Z,101158.23
2023-01-08T08:34:55.124Z,101160.36
2023-01-08T08:35:57.388Z,101167.44
2023-01-08T08:36:59.955Z,101163.58
2023-01-08T08:38:02.769Z,101160.91
2023-01-08T08:39:05.135Z,101151.02
2023-01-08T08:40:08.714Z,101150.88
2023-01-08T08:41:10.964Z,101156.73
2023-01-08T08:42:13.753Z,101146.00
2023-01-08T08:43:15.981Z,101146.00
2023-01-08T08:44:17.867Z,101152.02
2023-01-08T08:45:19.828Z,101149.09
2023-01-08T08:46:24.673Z,101149.09
2023-01-08T08:47:27.022Z,101141.38
2023-01-08T08:48:30.053Z,101147.39
2023-01-08T08:49:32.689Z,101140.47
2023-01-08T08:50:35.468Z,101137.08
2023-01-08T08:51:37.577Z,101144.80
2023-01-08T08:52:40.328Z,101145.77
2023-01-08T08:53:42.639Z,101147.67
2023-01-08T08:54:45.064Z,101139.70
2023-01-08T08:55:47.473Z,101134.99
2023-01-08T08:56:49.685Z,101137.42
2023-01-08T08:57:52.503Z,101146.36
2023-01-08T08:58:54.916Z,101138.22
2023-01-08T08:59:57.032Z,101132.73
2023-01-08T09:01:04.133Z,101134.87
2023-01-08T09:02:07.309Z,101137.13
2023-01-08T09:03:15.432Z,101138.87
2023-01-08T09:04:17.622Z,101133.66
2023-01-08T09:05:20.794Z,101140.95
2023-01-08T09:06:24.948Z,101131.92
2023-01-08T09:07:27.729Z,101139.44
2023-01-08T09:08:30.095Z,101124.66
2023-01-08T09:09:33.285Z,101127.20
2023-01-08T09:10:41.639Z,101128.94
2023-01-08T09:11:43.935Z,101130.86
2023-01-08T09:12:46.241Z,101123.30
2023-01-08T09:13:48.372Z,101127.69
2023-01-08T09:14:51.186Z,101127.94
2023-01-08T09:15:53.410Z,101119.83
2023-01-08T09:16:56.792Z,101128.48
2023-01-08T09:17:58.940Z,101129.67
2023-01-08T09:19:00.937Z,101126.52
2023-01-08T09:20:04.820Z,101122.05
2023-01-08T09:21:07.553Z,101124.55
2023-01-08T09:22:10.212Z,101122.05
2023-01-08T09:23:13.307Z,101118.30
2023-01-08T09:24:15.802Z,101125.50
2023-01-08T09:25:18.523Z,101124.78
2023-01-08T09:26:21.172Z,101120.09
2023-01-08T09:27:23.445Z,101123.89
2023-01-08T09:28:25.630Z,101124.84
2023-01-08T09:29:27.607Z,101125.10
2023-01-08T09:30:30.134Z,101115.56
2023-01-08T09:31:35.430Z,101120.88
2023-01-08T09:32:38.112Z,101131.27
2023-01-08T09:33:40.103Z,101115.52
2023-01-08T09:34:42.115Z,101112.84
2023-01-08T09:35:44.347Z,101114.58
2023-01-08T09:36:46.736Z,101112.09
2023-01-08T09:37:53.910Z,101116.64
2023-01-08T09:38:56.844Z,101119.13
2023-01-08T09:40:02.460Z,101113.95
2023-01-08T09:42:26.772Z,101106.43
2023-01-08T09:43:32.446Z,101116.02
2023-01-08T09:44:41.637Z,101114.19
2023-01-08T09:45:47.612Z,101119.59
2023-01-08T09:46:50.490Z,101118.83
2023-01-08T09:47:53.643Z,101115.03
2023-01-08T09:49:00.513Z,101119.45
2023-01-08T09:50:06.846Z,101114.81
2023-01-08T09:51:14.882Z,101112.84
2023-01-08T09:52:17.624Z,101114.00
2023-01-08T09:53:19.935Z,101113.61
2023-01-08T09:54:25.619Z,101112.27
2023-01-08T09:55:31.155Z,101113.03
2023-01-08T09:56:36.602Z,101112.90
2023-01-08T09:57:38.928Z,101109.15
2023-01-08T09:58:44.869Z,101107.36
2023-01-08T09:59:48.427Z,101109.28
2023-01-08T10:00:51.631Z,101109.65
2023-01-08T10:01:56.864Z,101111.06
2023-01-08T10:02:59.624Z,101110.84
2023-01-08T10:04:20.295Z,101107.23
2023-01-08T10:05:23.488Z,101107.23
2023-01-08T10:06:25.747Z,101112.59
2023-01-08T10:07:30.648Z,101110.12
2023-01-08T10:08:32.654Z,101109.37
2023-01-08T10:09:34.773Z,101105.05
2023-01-08T10:10:38.496Z,101100.81
2023-01-08T10:11:44.174Z,101089.45
2023-01-08T10:12:49.888Z,101089.45
2023-01-08T10:13:55.907Z,101089.49
2023-01-08T10:15:01.716Z,101089.80
2023-01-08T10:16:09.815Z,101087.27
2023-01-08T10:17:27.685Z,101089.45
2023-01-08T12:08:44.927Z,101022.69
2023-01-08T12:10:02.745Z,101025.06
2023-01-08T12:11:08.576Z,101024.38
2023-01-08T12:12:30.199Z,101028.12
2023-01-08T12:13:36.127Z,101027.28
2023-01-08T12:14:48.413Z,101022.27
2023-01-08T12:16:10.175Z,101025.78
2023-01-08T12:17:16.183Z,101025.86
2023-01-08T12:18:24.811Z,101023.44
2023-01-08T12:19:36.573Z,101016.80
2023-01-08T12:20:55.665Z,101024.83
2023-01-08T12:22:32.332Z,101016.95
2023-01-08T12:23:53.917Z,101021.16
2023-01-08T12:25:12.563Z,101020.20
2023-01-08T12:26:31.619Z,101020.97
2023-01-08T12:28:04.506Z,101017.81
2023-01-08T12:29:25.593Z,101022.05
2023-01-08T12:30:48.091Z,101027.80
2023-01-08T12:32:08.568Z,101013.53
2023-01-08T12:33:17.403Z,101017.00
2023-01-08T12:34:23.908Z,101011.87
2023-01-08T12:35:42.099Z,101022.70
2023-01-08T12:36:48.599Z,101017.73
2023-01-08T12:37:56.953Z,101014.61
2023-01-08T12:39:05.879Z,101011.17
2023-01-08T12:40:30.745Z,101009.66
2023-01-08T12:41:35.703Z,101013.68
2023-01-08T12:42:46.722Z,101004.58
2023-01-08T12:43:52.234Z,101009.85
2023-01-08T12:44:57.669Z,101015.02
2023-01-08T12:46:03.042Z,101011.59
2023-01-08T12:47:07.707Z,101009.66
2023-01-08T12:48:19.737Z,101005.05
2023-01-08T12:49:29.097Z,100995.72
2023-01-08T12:50:56.080Z,101000.73
2023-01-08T12:52:11.100Z,101003.97
2023-01-08T12:53:21.535Z,100984.30
2023-01-08T12:54:45.850Z,100992.79
2023-01-08T12:57:18.061Z,100984.64
2023-01-08T12:58:24.366Z,100997.06
2023-01-08T12:59:51.437Z,100993.05
2023-01-08T13:01:00.594Z,100988.16
2023-01-08T13:02:26.461Z,100990.92
2023-01-08T13:03:31.602Z,100991.07
2023-01-08T13:04:44.219Z,100987.64
2023-01-08T13:05:46.623Z,100984.02
2023-01-08T13:06:54.464Z,100989.37
2023-01-08T13:08:03.258Z,100984.28
2023-01-08T13:09:06.714Z,100987.20
2023-01-08T13:10:21.767Z,100995.87
2023-01-08T13:11:30.474Z,100989.75
2023-01-08T13:12:38.936Z,100977.16
2023-01-08T13:13:44.786Z,100981.41
2023-01-08T13:14:50.606Z,100990.03
2023-01-08T13:15:53.234Z,100983.39
2023-01-08T13:17:04.767Z,100981.22
2023-01-08T13:18:16.764Z,100980.59
2023-01-08T13:19:28.765Z,100984.77
2023-01-08T13:20:33.428Z,100980.01
2023-01-08T13:21:44.859Z,100983.33
2023-01-08T13:23:00.422Z,100981.84
2023-01-08T13:24:06.112Z,100977.17
2023-01-08T13:25:18.078Z,100984.77
2023-01-08T13:26:24.332Z,100986.34
2023-01-08T13:27:29.225Z,100985.02
2023-01-08T13:28:44.233Z,100991.53
2023-01-08T13:29:51.711Z,100984.22
2023-01-08T13:30:58.870Z,100994.98
2023-01-08T13:32:01.320Z,100982.87
2023-01-08T13:33:22.557Z,100993.80
2023-01-08T13:34:42.002Z,100988.64
2023-01-08T13:35:44.062Z,100985.25
2023-01-08T13:36:57.490Z,100994.48
2023-01-08T13:38:11.490Z,100988.55
2023-01-08T13:39:17.861Z,100985.13
2023-01-08T13:40:48.126Z,100991.05
2023-01-08T13:42:07.498Z,100993.30
2023-01-08T13:43:18.661Z,100996.65
2023-01-08T13:44:30.714Z,100984.70
2023-01-08T13:45:33.425Z,100984.66
2023-01-08T13:46:40.196Z,100987.25
2023-01-08T13:47:43.749Z,100988.12
2023-01-08T13:49:00.744Z,100992.50
2023-01-08T13:50:06.743Z,100985.63
2023-01-08T13:51:13.740Z,100990.50
2023-01-08T13:52:29.289Z,100983.73
2023-01-08T13:53:33.444Z,100986.81
2023-01-08T13:54:41.838Z,100997.61
2023-01-08T13:55:48.304Z,100977.36
2023-01-08T13:56:57.469Z,100984.86
2023-01-08T13:58:03.713Z,100988.11
2023-01-08T13:59:06.816Z,100989.72
2023-01-08T14:00:15.835Z,100984.64
2023-01-08T14:01:19.556Z,100987.01
2023-01-08T14:02:30.840Z,100981.93
2023-01-08T14:03:36.840Z,100983.44
2023-01-08T14:04:41.360Z,100979.22
2023-01-08T14:05:43.554Z,100985.13
2023-01-08T14:06:46.336Z,100990.25
2023-01-08T14:07:48.515Z,100980.95
2023-01-08T14:09:04.921Z,100979.07
2023-01-08T14:10:11.654Z,100976.63
2023-01-08T14:11:13.991Z,100974.80
2023-01-08T14:12:22.863Z,100972.17
2023-01-08T14:13:31.954Z,100981.44
2023-01-08T14:14:37.862Z,100972.76
2023-01-08T14:15:40.156Z,100975.30
2023-01-08T14:16:46.316Z,100983.97
2023-01-08T14:17:49.305Z,100977.03
2023-01-08T14:18:52.093Z,100973.69
2023-01-08T14:19:54.376Z,100982.23
2023-01-08T14:20:58.091Z,100976.23
2023-01-08T14:22:03.711Z,100972.66
2023-01-08T14:23:18.989Z,100970.13
2023-01-08T14:24:25.170Z,100967.63